Hlavní strana
METAR-TAF:

METAR-TAF

Letiště :

Mezinárodní letiště Sunan

Pchjongjang, Severní Korea

zeměpisná šířka: 39-02N, zeměpisná délka: 125-47E, výška: 36 m

METAR: chybějící

Čas: 13:46 (05:16 UTC)

Předpověď počasí

Zpráva byla vytvořena před 8 hodinami a 16 minutami, v 21:00 UTC
Předpověď platná od 20 v 00 UTC do 20 v 24 UTC
Severozápadní vítr 6 kt
Viditelnost: 2000 m
Zataženo ve výšce 300 ft
kouřmo
Změna
od 20 v 03 UTC do 20 v 05 UTC
Západoseverozápadní vítr 10 kt
Viditelnost 10 km a více
Oblačno až skoro zataženo ve výšce 2000 ft
Změna
od 20 v 10 UTC do 20 v 12 UTC
Západní vítr 6 kt
Viditelnost 10 km a více
Žádná oblačnost pod 1500 m, nevyskytují se cumulonimby.

TAF: ZKPY 192100Z 2000/2024 31003MPS 2000 BR OVC003 BECMG 2003/2005 29005MPS 9999 BKN020 BECMG 2010/2012 26003MPS CAVOK TX27/2006Z TN18/2021Z

Stav a předpovědi počasí z více než 4 000 letišť (zprávy METAR a TAF).

Červené a žluté tečky na mapě představují dostupné meteorologické stanice.

Když kurzor umístíte na tečku, zobrazí se název stanice.

Pak kliknutím zobrazíte stav a předpověď počasí.

Chcete-li změnit mapu, kliknutím na zelené tlačítko se znaménkem +mapu přiblížíte, kliknutím na zelené tlačítko se znaménkem – mapu oddálíte a kliknutím na zelené šipky přejdete na sousední mapy.


METAR-TAF: